Time;durP1;ratioP1;P1;durP2;ratioP2;P2;SDS_P1;SDS_P2;PMS_P1;PMS_P2;Temp;Humidity;BMP_temperature;BMP_pressure;BME280_temperature;BME280_humidity;BME280_pressure;Samples;Min_cycle;Max_cycle;Signal;HPM_P1;HPM_P2
2021/11/15 00:00:39;;;;;;;21.00;17.30;;;;;;;6.54;100.00;96260.13;5090194;28;25002;-74
2021/11/15 00:03:06;;;;;;;21.33;16.87;;;;;;;6.68;100.00;96261.31;5090422;28;24422;-75
2021/11/15 00:05:32;;;;;;;24.33;17.67;;;;;;;6.77;100.00;96254.06;5093254;28;24426;-74
2021/11/15 00:07:59;;;;;;;21.65;16.30;;;;;;;6.90;100.00;96257.00;5094256;28;24508;-74
2021/11/15 00:10:25;;;;;;;26.55;17.50;;;;;;;6.69;100.00;96260.41;5094307;28;24978;-74
2021/11/15 00:12:52;;;;;;;22.63;16.80;;;;;;;6.75;100.00;96255.03;5094471;28;24422;-75
2021/11/15 00:15:21;;;;;;;23.70;17.60;;;;;;;6.62;100.00;96252.09;5094168;28;24431;-74
2021/11/15 00:17:48;;;;;;;20.70;17.40;;;;;;;6.66;100.00;96252.81;5094288;28;24426;-74
2021/11/15 00:20:16;;;;;;;25.48;18.52;;;;;;;6.52;100.00;96250.78;5094127;28;24994;-74
2021/11/15 00:22:43;;;;;;;27.33;18.30;;;;;;;6.43;100.00;96244.25;5107895;22;25044;-73
2021/11/15 00:25:11;;;;;;;22.10;17.17;;;;;;;6.58;100.00;96247.13;5094065;28;24421;-74
2021/11/15 00:27:39;;;;;;;22.37;16.97;;;;;;;6.57;100.00;96248.88;5094161;28;24418;-73
2021/11/15 00:30:07;;;;;;;24.85;17.83;;;;;;;6.34;100.00;96260.06;5093982;28;24418;-74
2021/11/15 00:32:36;;;;;;;22.92;18.85;;;;;;;6.32;100.00;96256.69;5093938;28;24441;-73
2021/11/15 00:35:03;;;;;;;24.42;17.95;;;;;;;6.41;100.00;96255.50;5093804;28;24463;-73
2021/11/15 00:37:30;;;;;;;23.05;17.25;;;;;;;6.67;100.00;96247.59;5094070;28;24452;-73
2021/11/15 00:39:56;;;;;;;22.13;18.58;;;;;;;6.60;100.00;96248.75;5094023;28;24442;-73
2021/11/15 00:42:23;;;;;;;24.77;18.45;;;;;;;6.29;100.00;96249.94;5093763;28;24826;-73
2021/11/15 00:44:49;;;;;;;23.63;18.50;;;;;;;6.43;100.00;96243.44;5093528;28;24417;-73
2021/11/15 00:47:16;;;;;;;25.60;18.42;;;;;;;6.24;100.00;96245.88;5093126;28;25013;-74
2021/11/15 00:49:44;;;;;;;24.58;17.67;;;;;;;6.47;100.00;96250.97;5093436;28;24425;-73
2021/11/15 00:52:11;;;;;;;24.13;18.98;;;;;;;6.37;100.00;96252.19;5093661;28;24438;-73
2021/11/15 00:54:37;;;;;;;20.33;17.58;;;;;;;6.52;100.00;96256.75;5093402;28;24417;-73
2021/11/15 00:57:05;;;;;;;22.60;17.42;;;;;;;6.42;100.00;96249.47;5093550;28;24414;-73
2021/11/15 00:59:32;;;;;;;23.88;18.48;;;;;;;6.51;100.00;96260.22;5093413;28;24807;-73
2021/11/15 01:01:59;;;;;;;25.77;18.85;;;;;;;6.20;100.00;96258.00;5093227;28;25029;-73
2021/11/15 01:04:27;;;;;;;25.40;19.20;;;;;;;6.46;100.00;96257.00;5093266;28;24422;-73
2021/11/15 01:06:55;;;;;;;25.15;18.30;;;;;;;6.29;100.00;96259.38;5093477;28;24418;-73
2021/11/15 01:09:23;;;;;;;22.73;18.33;;;;;;;6.29;100.00;96254.25;5093269;28;24433;-73
2021/11/15 01:11:50;;;;;;;23.92;17.67;;;;;;;6.30;100.00;96259.34;5093184;28;24430;-73
2021/11/15 01:14:17;;;;;;;22.70;16.73;;;;;;;6.23;100.00;96262.19;5093239;28;24422;-74
2021/11/15 01:16:43;;;;;;;21.02;17.65;;;;;;;6.44;100.00;96261.38;5091422;28;24418;-73
2021/11/15 01:19:11;;;;;;;23.08;17.48;;;;;;;6.52;100.00;96259.31;5093255;28;24461;-73
2021/11/15 01:21:37;;;;;;;25.00;17.40;;;;;;;6.49;100.00;96256.91;5093144;28;24480;-73
2021/11/15 01:24:06;;;;;;;21.17;17.45;;;;;;;6.31;100.00;96257.59;5092941;28;24426;-73
2021/11/15 01:26:32;;;;;;;23.38;17.35;;;;;;;6.44;100.00;96261.38;5092917;28;24415;-73
2021/11/15 01:28:59;;;;;;;26.00;18.07;;;;;;;6.46;100.00;96269.88;5092864;28;24417;-74
2021/11/15 01:31:25;;;;;;;22.55;18.20;;;;;;;6.28;100.00;96260.28;5093096;28;24421;-73
2021/11/15 01:33:52;;;;;;;24.25;18.30;;;;;;;6.28;100.00;96255.16;5092902;28;24429;-73
2021/11/15 01:36:19;;;;;;;27.25;18.83;;;;;;;6.12;100.00;96256.59;5092696;28;24414;-73
2021/11/15 01:38:45;;;;;;;22.63;17.48;;;;;;;6.28;100.00;96255.16;5092720;28;24422;-73
2021/11/15 01:41:13;;;;;;;25.73;18.45;;;;;;;6.32;100.00;96250.72;5092681;28;24414;-73
2021/11/15 01:43:41;;;;;;;25.75;19.48;;;;;;;6.40;100.00;96253.84;5092416;28;24453;-73
2021/11/15 01:46:08;;;;;;;22.33;17.83;;;;;;;6.15;100.00;96247.03;5092521;28;24433;-73
2021/11/15 01:48:35;;;;;;;22.25;18.50;;;;;;;6.12;100.00;96252.31;5092680;28;24418;-73
2021/11/15 01:51:01;;;;;;;22.75;17.52;;;;;;;6.07;100.00;96254.22;5092556;28;24634;-73
2021/11/15 01:53:28;;;;;;;21.20;16.88;;;;;;;6.00;100.00;96247.63;5092311;28;24880;-73
2021/11/15 01:55:55;;;;;;;22.80;16.27;;;;;;;6.21;100.00;96253.69;5092331;28;24775;-73
2021/11/15 01:58:22;;;;;;;25.17;17.65;;;;;;;6.25;100.00;96255.25;5092293;28;24939;-73
2021/11/15 02:00:52;;;;;;;20.90;17.55;;;;;;;5.99;100.00;96254.50;5092435;28;24460;-72
2021/11/15 02:03:20;;;;;;;20.50;16.40;;;;;;;6.33;100.00;96255.78;5092266;28;24518;-73
2021/11/15 02:05:47;;;;;;;23.50;17.35;;;;;;;6.15;100.00;96252.19;5092099;28;24422;-73
2021/11/15 02:08:15;;;;;;;20.70;16.55;;;;;;;6.07;100.00;96249.91;5092895;28;24419;-74
2021/11/15 02:10:42;;;;;;;21.95;16.98;;;;;;;5.84;100.00;96252.47;5092123;28;25042;-73
2021/11/15 02:13:09;;;;;;;21.65;17.40;;;;;;;5.94;100.00;96253.84;5092135;28;24422;-73
2021/11/15 02:15:37;;;;;;;25.02;17.10;;;;;;;5.99;100.00;96248.53;5091902;28;24426;-73
2021/11/15 02:18:04;;;;;;;20.92;17.08;;;;;;;5.87;100.00;96241.22;5092109;28;24417;-73
2021/11/15 02:20:45;;;;;;;20.42;16.63;;;;;;;5.88;100.00;96240.34;5091912;28;24445;-74
2021/11/15 02:23:12;;;;;;;22.85;17.08;;;;;;;6.14;100.00;96229.94;5091627;28;24794;-73
2021/11/15 02:25:40;;;;;;;22.92;16.80;;;;;;;6.00;100.00;96233.03;5091444;28;24958;-74
2021/11/15 02:28:06;;;;;;;24.38;16.73;;;;;;;5.90;100.00;96234.25;5091404;28;24418;-74
2021/11/15 02:30:33;;;;;;;22.67;17.30;;;;;;;5.85;100.00;96222.44;5091860;28;24417;-73
2021/11/15 02:33:01;;;;;;;25.02;17.27;;;;;;;5.84;100.00;96224.19;5091637;28;24418;-73
2021/11/15 02:35:28;;;;;;;22.58;17.02;;;;;;;5.98;100.00;96223.72;5091347;28;24963;-73
2021/11/15 02:37:56;;;;;;;26.10;17.48;;;;;;;5.96;100.00;96228.88;5091475;28;24521;-72
2021/11/15 02:40:26;;;;;;;21.52;16.38;;;;;;;6.03;100.00;96226.94;5091782;28;24446;-73
2021/11/15 02:42:53;;;;;;;19.40;16.02;;;;;;;6.04;100.00;96229.47;5091616;28;24446;-73
2021/11/15 02:45:20;;;;;;;19.95;15.50;;;;;;;6.16;100.00;96224.75;5091269;28;24421;-73
2021/11/15 02:47:47;;;;;;;18.13;15.10;;;;;;;6.05;100.00;96230.31;5091433;28;24426;-74
2021/11/15 02:50:16;;;;;;;22.17;15.43;;;;;;;6.23;100.00;96224.47;5091321;28;24417;-73
2021/11/15 02:52:43;;;;;;;18.17;14.70;;;;;;;6.28;100.00;96232.81;5091435;28;24433;-73
2021/11/15 02:55:11;;;;;;;20.73;15.70;;;;;;;6.10;100.00;96230.94;5091189;28;24437;-73
2021/11/15 02:57:38;;;;;;;19.85;16.02;;;;;;;6.07;100.00;96233.63;5091412;28;24417;-73
2021/11/15 03:00:07;;;;;;;20.30;16.65;;;;;;;5.94;100.00;96238.41;5091238;28;24449;-73
2021/11/15 03:02:34;;;;;;;19.73;16.45;;;;;;;5.81;100.00;96243.13;5091119;28;24437;-73
2021/11/15 03:05:00;;;;;;;18.65;15.52;;;;;;;5.80;100.00;96245.75;5090846;28;24421;-73
2021/11/15 03:07:27;;;;;;;16.58;13.32;;;;;;;5.85;100.00;96241.28;5091283;28;24414;-73
2021/11/15 03:09:53;;;;;;;15.18;13.57;;;;;;;5.85;100.00;96237.88;5091196;28;24410;-73
2021/11/15 03:12:31;;;;;;;20.27;14.35;;;;;;;5.83;100.00;96236.19;5091019;28;24445;-73
2021/11/15 03:14:58;;;;;;;19.00;13.70;;;;;;;6.10;100.00;96230.94;5090763;28;24859;-73
2021/11/15 03:17:24;;;;;;;18.67;12.93;;;;;;;5.99;100.00;96233.09;5090752;28;24422;-73
2021/11/15 03:19:51;;;;;;;18.83;13.45;;;;;;;5.89;100.00;96239.44;5090991;28;24449;-73
2021/11/15 03:22:17;;;;;;;15.15;12.02;;;;;;;5.73;100.00;96237.41;5090849;28;24426;-73
2021/11/15 03:24:45;;;;;;;14.40;11.73;;;;;;;5.96;100.00;96235.78;5090473;28;24416;-73
2021/11/15 03:27:11;;;;;;;15.48;12.35;;;;;;;5.85;100.00;96236.13;5090772;28;24517;-73
2021/11/15 03:29:39;;;;;;;13.65;11.90;;;;;;;5.85;100.00;96233.56;5090666;28;24407;-73
2021/11/15 03:32:07;;;;;;;14.88;11.82;;;;;;;5.73;100.00;96236.59;5090408;28;24785;-73
2021/11/15 03:34:34;;;;;;;13.18;11.75;;;;;;;5.74;100.00;96236.50;5090579;28;24814;-73
2021/11/15 03:37:00;;;;;;;12.57;11.00;;;;;;;5.96;100.00;96230.63;5090633;28;24985;-73
2021/11/15 03:39:27;;;;;;;11.85;10.57;;;;;;;6.21;100.00;96233.13;5089906;28;24445;-73
2021/11/15 03:41:53;;;;;;;21.48;10.77;;;;;;;6.21;100.00;96225.41;5090559;28;24422;-73
2021/11/15 03:44:20;;;;;;;12.38;11.07;;;;;;;6.07;100.00;96223.34;5090546;28;24418;-73
2021/11/15 03:46:48;;;;;;;15.30;11.10;;;;;;;6.11;100.00;96222.34;5090077;28;24471;-74
2021/11/15 03:49:15;;;;;;;16.33;10.75;;;;;;;6.15;100.00;96223.06;5090851;28;24425;-74
2021/11/15 03:51:42;;;;;;;15.00;10.73;;;;;;;6.07;100.00;96220.78;5090611;28;24499;-73
2021/11/15 03:54:09;;;;;;;11.55;10.27;;;;;;;6.17;100.00;96223.84;5090445;28;24421;-74
2021/11/15 03:56:35;;;;;;;11.30;9.50;;;;;;;6.00;100.00;96232.19;5090216;28;24422;-74
2021/11/15 03:59:03;;;;;;;11.18;9.98;;;;;;;6.11;100.00;96226.66;5090225;28;24417;-73
2021/11/15 04:01:32;;;;;;;11.70;9.82;;;;;;;6.24;100.00;96227.88;5090386;28;24804;-74
2021/11/15 04:04:03;;;;;;;12.43;9.38;;;;;;;6.17;100.00;96227.25;5090445;28;24429;-74
2021/11/15 04:06:37;;;;;;;13.73;9.93;;;;;;;6.00;100.00;96225.31;5090200;28;24422;-74
2021/11/15 04:09:09;;;;;;;12.48;10.27;;;;;;;5.71;100.00;96231.50;5090408;28;24425;-74
2021/11/15 04:11:37;;;;;;;12.40;10.63;;;;;;;5.80;100.00;96235.47;5090097;28;24410;-74
2021/11/15 04:14:07;;;;;;;16.90;11.00;;;;;;;5.85;100.00;96233.56;5090717;28;24421;-74
2021/11/15 04:16:34;;;;;;;14.50;11.43;;;;;;;6.11;100.00;96236.94;5090444;28;24640;-74
2021/11/15 04:19:05;;;;;;;15.60;11.80;;;;;;;5.83;100.00;96233.63;5090371;28;24426;-75
2021/11/15 04:21:32;;;;;;;15.30;11.50;;;;;;;6.06;100.00;96227.66;5090150;28;24445;-74
2021/11/15 04:23:59;;;;;;;15.73;11.80;;;;;;;6.17;100.00;96237.53;5090042;28;24418;-73
2021/11/15 04:26:26;;;;;;;14.95;12.52;;;;;;;6.24;100.00;96230.44;5089780;28;24433;-73
2021/11/15 04:28:53;;;;;;;19.52;13.40;;;;;;;6.07;100.00;96220.78;5090178;28;24421;-73
2021/11/15 04:31:20;;;;;;;15.80;12.95;;;;;;;6.08;100.00;96227.59;5090276;28;24471;-73
2021/11/15 04:33:46;;;;;;;16.58;13.82;;;;;;;5.99;100.00;96221.06;5090106;28;24418;-73
2021/11/15 04:36:14;;;;;;;22.00;13.52;;;;;;;6.01;100.00;96224.44;5089892;28;24425;-73
2021/11/15 04:38:41;;;;;;;17.37;13.37;;;;;;;5.68;100.00;96223.06;5089970;28;24468;-74
2021/11/15 04:41:07;;;;;;;17.90;14.98;;;;;;;5.42;100.00;96213.72;5090031;28;24441;-73
2021/11/15 04:43:34;;;;;;;25.23;17.35;;;;;;;5.73;100.00;96222.00;5089991;28;24449;-73
2021/11/15 04:46:01;;;;;;;22.17;18.45;;;;;;;5.65;100.00;96215.47;5089591;28;24784;-75
2021/11/15 04:48:28;;;;;;;24.08;18.05;;;;;;;5.70;100.00;96211.81;5090522;28;24829;-76
2021/11/15 04:50:55;;;;;;;23.77;18.40;;;;;;;5.74;100.00;96217.69;5093686;28;24422;-75
2021/11/15 04:53:23;;;;;;;23.67;19.50;;;;;;;5.90;100.00;96205.97;5095102;28;25086;-76
2021/11/15 04:55:50;;;;;;;28.63;19.10;;;;;;;5.72;100.00;96211.78;5095776;28;24425;-75
2021/11/15 04:58:17;;;;;;;20.00;17.90;;;;;;;5.80;100.00;96212.34;5095729;28;24425;-74
2021/11/15 05:00:44;;;;;;;23.95;18.73;;;;;;;5.56;100.00;96214.06;5095286;28;24445;-75
2021/11/15 05:03:10;;;;;;;29.65;19.10;;;;;;;5.63;100.00;96215.50;5095101;28;24418;-76
2021/11/15 05:05:37;;;;;;;21.95;18.13;;;;;;;5.76;100.00;96214.19;5094016;28;24421;-74
2021/11/15 05:08:04;;;;;;;22.92;18.45;;;;;;;5.70;100.00;96221.28;5093245;28;24414;-73
2021/11/15 05:10:32;;;;;;;25.02;19.02;;;;;;;5.54;100.00;96214.13;5093700;28;24787;-75
2021/11/15 05:13:01;;;;;;;23.88;18.08;;;;;;;5.56;100.00;96214.06;5093303;28;24418;-75
2021/11/15 05:15:27;;;;;;;23.67;18.73;;;;;;;5.62;100.00;96216.41;5094000;28;24433;-76
2021/11/15 05:17:54;;;;;;;20.95;17.80;;;;;;;5.66;100.00;96222.28;5095132;28;24433;-78
2021/11/15 05:20:21;;;;;;;23.45;17.77;;;;;;;5.54;100.00;96215.84;5094861;28;24446;-76
2021/11/15 05:22:49;;;;;;;22.52;16.80;;;;;;;5.74;100.00;96222.84;5093760;28;24434;-76
2021/11/15 05:25:16;;;;;;;29.52;17.65;;;;;;;5.88;100.00;96220.59;5093194;28;24426;-75
2021/11/15 05:27:44;;;;;;;17.50;15.60;;;;;;;5.92;100.00;96214.47;5093660;28;24422;-76
2021/11/15 05:30:13;;;;;;;18.75;14.45;;;;;;;5.94;100.00;96214.44;5093365;28;24543;-76
2021/11/15 05:32:40;;;;;;;19.45;16.00;;;;;;;5.76;100.00;96221.06;5093467;28;24433;-75
2021/11/15 05:35:08;;;;;;;23.08;16.80;;;;;;;5.79;100.00;96215.81;5086933;28;24438;-76
2021/11/15 05:37:35;;;;;;;19.77;16.55;;;;;;;5.56;100.00;96211.47;5092901;28;24429;-76
2021/11/15 05:40:02;;;;;;;23.13;17.52;;;;;;;5.46;100.00;96212.72;5093467;28;24414;-75
2021/11/15 05:42:28;;;;;;;23.73;16.88;;;;;;;5.50;100.00;96215.13;5093386;28;24780;-76
2021/11/15 05:44:56;;;;;;;27.50;18.45;;;;;;;5.46;100.00;96217.88;5093191;28;24418;-76
2021/11/15 05:47:23;;;;;;;22.27;18.45;;;;;;;5.55;100.00;96215.78;5093482;28;24429;-76
2021/11/15 05:49:49;;;;;;;19.02;15.43;;;;;;;5.66;100.00;96223.13;5093882;28;24425;-76
2021/11/15 05:52:18;;;;;;;20.35;16.70;;;;;;;5.77;100.00;96228.69;5093299;28;24421;-75
2021/11/15 05:54:44;;;;;;;20.02;15.93;;;;;;;5.87;100.00;96225.81;5092861;28;24421;-75
2021/11/15 05:57:11;;;;;;;20.90;16.88;;;;;;;5.92;100.00;96223.91;5093069;28;24418;-76
2021/11/15 05:59:38;;;;;;;21.08;16.45;;;;;;;5.82;100.00;96239.66;5093279;28;24410;-76
2021/11/15 06:02:06;;;;;;;21.13;17.08;;;;;;;5.85;100.00;96236.13;5092164;28;24557;-75
2021/11/15 06:04:32;;;;;;;21.08;16.70;;;;;;;5.62;100.00;96236.13;5093238;28;24521;-76
2021/11/15 06:06:59;;;;;;;24.08;15.45;;;;;;;5.77;100.00;96248.44;5093225;28;24422;-73
2021/11/15 06:09:25;;;;;;;20.05;15.75;;;;;;;5.89;100.00;96242.84;5092467;28;24414;-76
2021/11/15 06:11:52;;;;;;;20.40;15.50;;;;;;;5.85;100.00;96240.44;5092446;28;24954;-75
2021/11/15 06:14:18;;;;;;;19.10;14.20;;;;;;;5.73;100.00;96250.28;5092044;28;24425;-74
2021/11/15 06:16:45;;;;;;;16.02;13.02;;;;;;;5.85;100.00;96246.41;5091447;28;24415;-72
2021/11/15 06:19:13;;;;;;;17.10;13.05;;;;;;;5.66;100.00;96240.28;5091908;28;24982;-72
2021/11/15 06:21:39;;;;;;;16.65;12.45;;;;;;;5.74;100.00;96248.53;5092109;28;24502;-75
2021/11/15 06:24:06;;;;;;;19.05;12.48;;;;;;;5.46;100.00;96246.97;5062244;22;24479;-76
2021/11/15 06:26:33;;;;;;;15.03;12.23;;;;;;;5.49;100.00;96246.03;5043032;28;24506;-74
2021/11/15 06:28:59;;;;;;;17.58;11.63;;;;;;;5.65;100.00;96265.13;5051480;28;24434;-74
2021/11/15 06:31:26;;;;;;;16.67;12.10;;;;;;;5.50;100.00;96252.81;5051577;28;24412;-74
2021/11/15 06:33:52;;;;;;;18.70;12.65;;;;;;;5.56;100.00;96253.47;5051576;28;24442;-74
2021/11/15 06:36:23;;;;;;;18.65;12.48;;;;;;;5.64;100.00;96258.31;5051170;28;25259;-74
2021/11/15 06:38:50;;;;;;;19.40;12.95;;;;;;;5.77;100.00;96259.53;5051386;28;25010;-74
2021/11/15 06:41:16;;;;;;;15.77;13.30;;;;;;;5.74;100.00;96262.22;5051025;28;24450;-73
2021/11/15 06:43:43;;;;;;;17.38;12.60;;;;;;;5.71;100.00;96256.34;5051387;28;24415;-74
2021/11/15 06:46:09;;;;;;;14.63;12.98;;;;;;;5.72;100.00;96258.06;5050884;28;24419;-74
2021/11/15 06:48:41;;;;;;;15.70;13.15;;;;;;;5.58;100.00;96259.38;5051415;28;24419;-74
2021/11/15 06:51:08;;;;;;;16.58;13.30;;;;;;;5.59;100.00;96260.19;5051228;28;24415;-74
2021/11/15 06:53:36;;;;;;;14.90;13.30;;;;;;;5.68;100.00;96259.88;5051303;28;24435;-74
2021/11/15 06:56:03;;;;;;;18.47;14.43;;;;;;;5.58;100.00;96258.53;5050778;28;24505;-74
2021/11/15 06:58:29;;;;;;;19.10;14.10;;;;;;;5.69;100.00;96261.56;5051125;28;24423;-74
2021/11/15 07:00:56;;;;;;;17.92;14.73;;;;;;;5.62;100.00;96259.25;5050885;28;24801;-74
2021/11/15 07:03:23;;;;;;;20.95;14.25;;;;;;;5.65;100.00;96274.56;5050845;28;24912;-74
2021/11/15 07:05:49;;;;;;;19.05;13.65;;;;;;;5.73;100.00;96272.56;5050507;28;24423;-73
2021/11/15 07:08:16;;;;;;;18.73;14.25;;;;;;;5.74;100.00;96276.81;5050531;28;24419;-74
2021/11/15 07:10:44;;;;;;;17.35;14.82;;;;;;;5.51;100.00;96267.34;5050701;28;24426;-74
2021/11/15 07:13:13;;;;;;;16.75;13.93;;;;;;;5.59;100.00;96276.44;5050480;28;24427;-74
2021/11/15 07:15:40;;;;;;;20.17;15.17;;;;;;;5.53;100.00;96276.69;5050378;28;24810;-74
2021/11/15 07:18:07;;;;;;;19.25;16.00;;;;;;;5.74;100.00;96277.63;5050892;28;24438;-74
2021/11/15 07:20:33;;;;;;;20.52;15.15;;;;;;;5.34;100.00;96275.66;5051033;28;24423;-74
2021/11/15 07:23:00;;;;;;;19.90;15.17;;;;;;;5.42;100.00;96271.09;5050808;28;24455;-74
2021/11/15 07:25:27;;;;;;;16.90;14.70;;;;;;;5.31;100.00;96279.16;5050458;28;24411;-74
2021/11/15 07:27:56;;;;;;;19.42;14.65;;;;;;;5.72;100.00;96273.47;5050598;28;24430;-73
2021/11/15 07:30:23;;;;;;;21.65;14.57;;;;;;;5.70;100.00;96268.38;5050995;28;24415;-73
2021/11/15 07:32:51;;;;;;;19.33;14.93;;;;;;;5.87;100.00;96274.66;5050837;28;24419;-74
2021/11/15 07:35:18;;;;;;;18.80;15.50;;;;;;;5.75;100.00;96276.78;5050549;28;24469;-74
2021/11/15 07:37:45;;;;;;;21.07;15.60;;;;;;;5.30;100.00;96274.03;5050552;28;24419;-73
2021/11/15 07:40:15;;;;;;;21.23;15.30;;;;;;;5.38;100.00;96263.50;5050502;28;24776;-74
2021/11/15 07:42:42;;;;;;;19.87;14.63;;;;;;;5.49;100.00;96275.13;5049944;28;24816;-74
2021/11/15 07:45:11;;;;;;;18.80;14.77;;;;;;;5.45;100.00;96265.84;5049736;28;24450;-74
2021/11/15 07:47:40;;;;;;;20.30;15.13;;;;;;;5.38;100.00;96273.78;5050537;28;24420;-74
2021/11/15 07:50:07;;;;;;;22.63;14.02;;;;;;;5.53;100.00;96281.00;5050207;28;24439;-74
2021/11/15 07:52:36;;;;;;;17.73;14.00;;;;;;;5.38;100.00;96277.22;5050427;28;24513;-73
2021/11/15 07:55:03;;;;;;;22.73;15.02;;;;;;;5.36;100.00;96283.28;5050208;28;24419;-74
2021/11/15 07:57:30;;;;;;;19.87;14.93;;;;;;;5.55;100.00;96280.03;5050503;28;24420;-74
2021/11/15 07:59:57;;;;;;;16.77;13.65;;;;;;;5.31;100.00;96283.44;5050599;28;24415;-74
2021/11/15 08:02:25;;;;;;;20.25;13.48;;;;;;;5.27;100.00;96292.16;5050325;28;24455;-76
2021/11/15 08:04:51;;;;;;;19.43;13.70;;;;;;;5.34;100.00;96288.50;5050085;28;24419;-75
2021/11/15 08:07:18;;;;;;;16.42;13.60;;;;;;;5.33;100.00;96295.31;5050550;28;25099;-75
2021/11/15 08:09:44;;;;;;;16.85;13.63;;;;;;;5.29;100.00;96288.63;5050301;28;24426;-74
2021/11/15 08:12:11;;;;;;;16.88;14.25;;;;;;;5.55;100.00;96292.88;5050437;28;24773;-73
2021/11/15 08:14:40;;;;;;;19.00;14.30;;;;;;;5.59;100.00;96293.59;5049872;28;24970;-74
2021/11/15 08:17:07;;;;;;;16.30;13.15;;;;;;;5.66;100.00;96299.38;5050209;28;24430;-74
2021/11/15 08:19:35;;;;;;;18.05;13.05;;;;;;;5.47;100.00;96291.47;5050272;28;24419;-75
2021/11/15 08:22:03;;;;;;;15.05;13.20;;;;;;;5.34;100.00;96293.63;5050555;28;24451;-75
2021/11/15 08:25:24;;;;;;;16.80;13.45;;;;;;;5.33;100.00;96290.19;5050218;28;24518;-77
2021/11/15 08:27:50;;;;;;;17.13;13.65;;;;;;;5.39;100.00;96302.00;5054335;28;24430;-75
2021/11/15 08:30:17;;;;;;;17.05;13.23;;;;;;;5.35;100.00;96297.88;5054004;28;24407;-73
2021/11/15 08:32:45;;;;;;;20.10;13.60;;;;;;;5.63;100.00;96299.47;5054063;28;24419;-73
2021/11/15 08:35:13;;;;;;;15.70;13.35;;;;;;;5.46;100.00;96292.38;5053987;28;24434;-74
2021/11/15 08:37:51;;;;;;;21.77;12.95;;;;;;;5.32;100.00;96296.22;5053840;28;24434;-75
2021/11/15 08:40:18;;;;;;;16.88;12.52;;;;;;;5.46;100.00;96302.63;5053633;28;24419;-73
2021/11/15 08:42:44;;;;;;;17.63;13.18;;;;;;;5.34;100.00;96296.19;5053840;28;24458;-73
2021/11/15 08:45:14;;;;;;;17.80;13.95;;;;;;;5.72;100.00;96291.47;5053755;28;24415;-74
2021/11/15 08:47:40;;;;;;;17.77;13.35;;;;;;;5.63;100.00;96284.88;5053817;28;24423;-74
2021/11/15 08:50:07;;;;;;;17.42;13.88;;;;;;;5.48;100.00;96286.25;5053590;28;24976;-73
2021/11/15 08:52:35;;;;;;;15.13;13.05;;;;;;;5.72;100.00;96294.03;5053515;28;24424;-73
2021/11/15 08:55:01;;;;;;;16.00;13.55;;;;;;;5.75;100.00;96293.94;5053025;28;24423;-73
2021/11/15 08:57:28;;;;;;;18.52;13.85;;;;;;;5.98;100.00;96288.81;5053886;28;24423;-74
2021/11/15 08:59:55;;;;;;;20.40;14.57;;;;;;;5.89;100.00;96285.69;5053722;28;24455;-73
2021/11/15 09:02:22;;;;;;;21.20;14.98;;;;;;;5.78;100.00;96293.78;5053293;28;24558;-73
2021/11/15 09:04:48;;;;;;;20.48;15.25;;;;;;;5.47;100.00;96288.91;5052975;28;24415;-73
2021/11/15 09:07:15;;;;;;;17.25;13.52;;;;;;;5.44;100.00;96289.84;5053284;28;24419;-73
2021/11/15 09:09:43;;;;;;;18.83;14.02;;;;;;;5.67;100.00;96283.88;5053106;28;24422;-73
2021/11/15 09:12:10;;;;;;;22.00;15.18;;;;;;;5.58;100.00;96292.75;5053369;28;24580;-73
2021/11/15 09:14:37;;;;;;;17.90;14.73;;;;;;;5.55;100.00;96287.72;5052936;28;24953;-73
2021/11/15 09:17:04;;;;;;;19.80;14.37;;;;;;;5.66;100.00;96283.94;5053085;28;24415;-74
2021/11/15 09:19:31;;;;;;;17.47;14.13;;;;;;;5.78;100.00;96297.22;5053634;28;24494;-73
2021/11/15 09:22:00;;;;;;;16.58;14.63;;;;;;;5.74;100.00;96292.22;5052867;28;24466;-73
2021/11/15 09:24:27;;;;;;;18.75;14.40;;;;;;;5.53;100.00;96292.09;5052704;28;24423;-73
2021/11/15 09:26:55;;;;;;;19.02;15.00;;;;;;;5.49;100.00;96300.81;5053044;28;24790;-73
2021/11/15 09:29:22;;;;;;;17.35;14.52;;;;;;;5.50;100.00;96299.06;5053033;28;24953;-73
2021/11/15 09:31:49;;;;;;;19.38;14.13;;;;;;;5.41;100.00;96300.22;5052898;28;24426;-73
2021/11/15 09:34:15;;;;;;;17.20;14.25;;;;;;;5.62;100.00;96297.81;5052706;28;24430;-73
2021/11/15 09:36:42;;;;;;;19.50;14.80;;;;;;;5.50;100.00;96291.38;5051366;28;24530;-74
2021/11/15 09:39:09;;;;;;;16.10;13.68;;;;;;;5.63;100.00;96292.59;5052823;28;24423;-73
2021/11/15 09:41:37;;;;;;;15.57;13.90;;;;;;;5.57;100.00;96301.38;5052604;28;24428;-73
2021/11/15 09:44:05;;;;;;;14.65;12.60;;;;;;;5.61;100.00;96288.44;5052638;28;24431;-73
2021/11/15 09:46:33;;;;;;;20.40;14.93;;;;;;;5.58;100.00;96294.50;5052158;28;24422;-73
2021/11/15 09:49:09;;;;;;;15.85;13.88;;;;;;;5.98;100.00;96293.97;5052481;28;24719;-74
2021/11/15 09:51:36;;;;;;;18.25;14.07;;;;;;;5.75;100.00;96286.22;5052462;28;24773;-74
2021/11/15 09:54:05;;;;;;;17.38;13.77;;;;;;;5.68;100.00;96283.03;5052392;28;24419;-73
2021/11/15 09:56:32;;;;;;;15.95;13.55;;;;;;;5.73;100.00;96291.38;5051977;28;24431;-73
2021/11/15 09:58:59;;;;;;;16.70;13.50;;;;;;;5.59;100.00;96299.56;5052358;28;25067;-74
2021/11/15 10:01:27;;;;;;;17.05;13.43;;;;;;;5.66;100.00;96299.38;5052336;28;24415;-74
2021/11/15 10:03:54;;;;;;;17.25;13.50;;;;;;;5.73;100.00;96290.56;5052168;28;24428;-74
2021/11/15 10:06:21;;;;;;;19.52;13.18;;;;;;;6.10;100.00;96290.09;5052236;28;24419;-74
2021/11/15 10:08:49;;;;;;;18.45;13.68;;;;;;;6.07;100.00;96283.31;5052214;28;24477;-73
2021/11/15 10:11:17;;;;;;;18.33;14.07;;;;;;;5.79;100.00;96285.22;5052371;28;24428;-73
2021/11/15 10:13:44;;;;;;;17.40;13.43;;;;;;;5.45;100.00;96283.81;5052299;28;24419;-73
2021/11/15 10:16:12;;;;;;;16.65;13.88;;;;;;;5.78;100.00;96286.94;5052209;28;24426;-74
2021/11/15 10:18:46;;;;;;;23.50;14.70;;;;;;;5.88;100.00;96290.00;5052167;28;24438;-73
2021/11/15 10:21:17;;;;;;;19.10;14.10;;;;;;;6.00;100.00;96292.16;5052155;28;24777;-73
2021/11/15 10:23:47;;;;;;;18.25;13.85;;;;;;;6.06;100.00;96276.50;5051681;28;24462;-73
2021/11/15 10:26:21;;;;;;;22.23;14.65;;;;;;;6.09;100.00;96273.00;5052080;28;24426;-73
2021/11/15 10:28:52;;;;;;;16.10;14.30;;;;;;;5.91;100.00;96281.34;5051646;28;24454;-73
2021/11/15 10:31:33;;;;;;;24.17;15.50;;;;;;;5.85;100.00;96279.81;5051979;28;24518;-73
2021/11/15 10:34:02;;;;;;;21.77;15.50;;;;;;;6.07;100.00;96274.78;5051857;28;24793;-74
2021/11/15 10:36:48;;;;;;;17.27;14.57;;;;;;;6.02;100.00;96284.41;5051396;28;24477;-73
2021/11/15 10:39:15;;;;;;;19.05;15.82;;;;;;;6.11;100.00;96275.50;5051497;28;24765;-73
2021/11/15 10:41:42;;;;;;;22.35;14.77;;;;;;;6.04;100.00;96280.03;5051672;28;24423;-74
2021/11/15 10:44:11;;;;;;;22.88;16.98;;;;;;;6.09;100.00;96285.84;5051381;28;24801;-74
2021/11/15 10:46:41;;;;;;;26.10;18.60;;;;;;;5.98;100.00;96277.69;5051146;28;24433;-73
2021/11/15 10:49:11;;;;;;;25.80;19.00;;;;;;;5.96;100.00;96277.75;5051458;28;24419;-73
2021/11/15 10:51:52;;;;;;;25.17;19.50;;;;;;;5.91;100.00;96271.06;5051623;28;24594;-73
2021/11/15 10:54:51;;;;;;;26.55;19.23;;;;;;;5.91;100.00;96260.78;5051116;28;24474;-73
2021/11/15 10:57:25;;;;;;;26.00;20.08;;;;;;;5.88;100.00;96261.72;5051230;28;24971;-73
2021/11/15 11:00:23;;;;;;;21.17;18.83;;;;;;;5.69;100.00;96269.25;5051105;28;24427;-73
2021/11/15 11:02:53;;;;;;;25.35;19.77;;;;;;;5.82;100.00;96257.66;5051055;28;24992;-73
2021/11/15 11:05:24;;;;;;;26.95;18.55;;;;;;;5.98;100.00;96252.81;5050715;28;24426;-74
2021/11/15 11:07:51;;;;;;;22.47;19.50;;;;;;;6.09;100.00;96239.56;5051209;28;24427;-73
2021/11/15 11:10:21;;;;;;;26.65;19.70;;;;;;;6.13;100.00;96245.44;5046163;28;24984;-74
2021/11/15 11:12:58;;;;;;;27.50;20.05;;;;;;;6.02;100.00;96240.69;5035460;28;24432;-73
2021/11/15 11:15:32;;;;;;;27.52;19.90;;;;;;;6.09;100.00;96249.84;5040637;28;24957;-74
2021/11/15 11:18:18;;;;;;;23.15;19.02;;;;;;;5.97;100.00;96252.88;5036395;28;24444;-73
2021/11/15 11:23:46;;;;;;;26.25;20.80;;;;;;;5.96;100.00;96243.47;4988459;28;24460;-73